Time,TemperatureF,DewpointF,PressureIn,WindDirection,WindDirectionDegrees,WindSpeedMPH,WindSpeedGustMPH,Humidity,HourlyPrecipIn,Conditions,Clouds,dailyrainin,SoftwareType,DateUTC
2013-02-15 00:11:00,63.6,62.0,30.01,North,358,0.0,0.0,95,0.05,,,0.02,weatherlink.com 1.10,2013-02-15 05:11:00,
2013-02-15 00:26:00,63.4,62.0,30.00,North,354,5.0,5.0,95,0.06,,,0.05,weatherlink.com 1.10,2013-02-15 05:26:00,
2013-02-15 00:41:00,63.3,62.0,29.99,North,3,6.0,10.0,95,0.06,,,0.06,weatherlink.com 1.10,2013-02-15 05:41:00,
2013-02-15 01:11:00,63.6,62.0,29.98,North,9,3.0,8.0,95,0.04,,,0.06,weatherlink.com 1.10,2013-02-15 06:11:00,
2013-02-15 01:26:00,63.8,62.0,29.98,North,354,0.0,0.0,95,0.02,,,0.07,weatherlink.com 1.10,2013-02-15 06:26:00,
2013-02-15 01:41:00,63.9,63.0,29.99,NNW,329,4.0,5.0,95,0.07,,,0.13,weatherlink.com 1.10,2013-02-15 06:41:00,
2013-02-15 01:56:00,64.1,63.0,29.98,NNW,327,0.0,2.0,96,0.11,,,0.17,weatherlink.com 1.10,2013-02-15 06:56:00,
2013-02-15 02:11:00,64.2,63.0,29.98,North,354,2.0,5.0,96,0.13,,,0.19,weatherlink.com 1.10,2013-02-15 07:11:00,
2013-02-15 02:26:00,64.2,-99.9,29.97,NNW,336,1.0,6.0,-999,0.18,,,0.25,weatherlink.com 1.10,2013-02-15 07:26:00,
2013-02-15 02:41:00,64.6,30.0,29.96,NNW,336,3.0,4.0,27,0.19,,,0.32,weatherlink.com 1.10,2013-02-15 07:41:00,
2013-02-15 02:58:00,64.9,30.0,29.96,NNW,336,0.0,3.0,27,0.17,,,0.35,weatherlink.com 1.10,2013-02-15 07:58:00,
2013-02-15 03:11:00,65.1,30.0,29.97,NNW,336,0.0,0.0,27,0.18,,,0.38,weatherlink.com 1.10,2013-02-15 08:11:00,
2013-02-15 03:26:00,65.9,-99.9,29.96,NNW,344,3.0,6.0,-999,0.14,,,0.39,weatherlink.com 1.10,2013-02-15 08:26:00,
2013-02-15 03:42:00,65.7,-99.9,29.96,NNW,340,6.0,8.0,-999,0.07,,,0.39,weatherlink.com 1.10,2013-02-15 08:42:00,
2013-02-15 03:57:00,65.7,-99.9,29.96,NNW,344,0.0,5.0,-999,0.06,,,0.41,weatherlink.com 1.10,2013-02-15 08:57:00,
2013-02-15 04:12:00,65.5,-99.9,29.95,NNW,344,0.0,0.0,-999,0.03,,,0.41,weatherlink.com 1.10,2013-02-15 09:12:00,
2013-02-15 04:27:00,65.5,-99.9,29.96,NNW,344,0.0,0.0,-999,0.04,,,0.43,weatherlink.com 1.10,2013-02-15 09:27:00,
2013-02-15 04:42:00,65.7,-99.9,29.96,NNW,344,0.0,0.0,-999,0.06,,,0.45,weatherlink.com 1.10,2013-02-15 09:42:00,
2013-02-15 04:57:00,66.2,-99.9,29.96,NNW,344,0.0,3.0,-999,0.04,,,0.45,weatherlink.com 1.10,2013-02-15 09:57:00,
2013-02-15 05:12:00,66.7,-99.9,29.96,North,354,4.0,7.0,-999,0.04,,,0.45,weatherlink.com 1.10,2013-02-15 10:12:00,
2013-02-15 05:27:00,66.8,-99.9,29.97,North,360,4.0,7.0,-999,0.04,,,0.47,weatherlink.com 1.10,2013-02-15 10:27:00,
2013-02-15 05:42:00,66.7,-99.9,29.98,North,2,0.0,6.0,-999,0.06,,,0.51,weatherlink.com 1.10,2013-02-15 10:42:00,
2013-02-15 05:57:00,66.8,-99.9,29.98,East,81,0.0,8.0,-999,0.06,,,0.51,weatherlink.com 1.10,2013-02-15 10:57:00,
2013-02-15 06:12:00,66.8,-99.9,29.98,NNE,17,3.0,6.0,-999,0.06,,,0.51,weatherlink.com 1.10,2013-02-15 11:12:00,
2013-02-15 06:27:00,66.8,-99.9,29.98,NE,38,2.0,8.0,-999,0.04,,,0.51,weatherlink.com 1.10,2013-02-15 11:27:00,
2013-02-15 06:43:00,67.0,-99.9,29.98,NNE,20,4.0,6.0,-999,0.01,,,0.52,weatherlink.com 1.10,2013-02-15 11:43:00,
2013-02-15 06:57:00,67.0,-99.9,29.98,NNE,15,2.0,6.0,-999,0.01,,,0.52,weatherlink.com 1.10,2013-02-15 11:57:00,
2013-02-15 07:12:00,67.2,-99.9,29.99,NNE,21,2.0,8.0,-999,0.01,,,0.52,weatherlink.com 1.10,2013-02-15 12:12:00,
2013-02-15 07:28:00,67.2,-99.9,30.00,NNE,19,3.0,6.0,-999,0.01,,,0.52,weatherlink.com 1.10,2013-02-15 12:28:00,
2013-02-15 07:43:00,67.0,-99.9,30.00,NNE,18,6.0,8.0,-999,0.00,,,0.52,weatherlink.com 1.10,2013-02-15 12:43:00,
2013-02-15 07:58:00,67.0,-99.9,30.00,North,5,3.0,9.0,-999,0.00,,,0.52,weatherlink.com 1.10,2013-02-15 12:58:00,
2013-02-15 08:13:00,67.5,-99.9,30.01,NNE,18,4.0,7.0,-999,0.00,,,0.52,weatherlink.com 1.10,2013-02-15 13:13:00,
2013-02-15 08:28:00,67.8,-99.9,30.01,NNE,31,2.0,11.0,-999,0.00,,,0.52,weatherlink.com 1.10,2013-02-15 13:28:00,
2013-02-15 08:43:00,68.0,-99.9,30.01,NE,50,2.0,5.0,-999,0.00,,,0.52,weatherlink.com 1.10,2013-02-15 13:43:00,
2013-02-15 08:58:00,68.0,-99.9,30.01,NE,45,0.0,7.0,-999,0.00,,,0.52,weatherlink.com 1.10,2013-02-15 13:58:00,
2013-02-15 09:13:00,68.3,-99.9,30.01,East,80,2.0,11.0,-999,0.00,,,0.52,weatherlink.com 1.10,2013-02-15 14:13:00,
2013-02-15 09:43:00,70.2,-99.9,30.01,East,85,7.0,12.0,-999,0.00,,,0.52,weatherlink.com 1.10,2013-02-15 14:43:00,
2013-02-15 09:58:00,70.5,44.0,30.01,ENE,74,3.0,11.0,38,0.00,,,0.52,weatherlink.com 1.10,2013-02-15 14:58:00,
2013-02-15 10:13:00,70.7,66.0,30.01,ENE,78,2.0,11.0,85,0.00,,,0.52,weatherlink.com 1.10,2013-02-15 15:13:00,
2013-02-15 10:28:00,71.0,66.0,30.01,ENE,61,4.0,10.0,84,0.00,,,0.52,weatherlink.com 1.10,2013-02-15 15:28:00,
2013-02-15 10:43:00,71.4,66.0,30.01,East,87,0.0,7.0,83,0.00,,,0.52,weatherlink.com 1.10,2013-02-15 15:43:00,
2013-02-15 10:58:00,71.5,66.0,30.02,NNE,19,0.0,5.0,83,0.00,,,0.52,weatherlink.com 1.10,2013-02-15 15:58:00,
2013-02-15 11:13:00,71.5,66.0,30.02,NNE,17,0.0,8.0,83,0.00,,,0.52,weatherlink.com 1.10,2013-02-15 16:13:00,
2013-02-15 11:28:00,71.4,67.0,30.02,NNE,18,3.0,6.0,85,0.02,,,0.54,weatherlink.com 1.10,2013-02-15 16:28:00,
2013-02-15 11:43:00,71.4,67.0,30.02,NNE,20,3.0,9.0,87,0.02,,,0.54,weatherlink.com 1.10,2013-02-15 16:43:00,
2013-02-15 11:58:00,71.7,67.0,30.01,North,4,5.0,10.0,86,0.02,,,0.54,weatherlink.com 1.10,2013-02-15 16:58:00,
2013-02-15 12:13:00,71.7,67.0,30.01,NNE,15,6.0,7.0,85,0.02,,,0.54,weatherlink.com 1.10,2013-02-15 17:13:00,
2013-02-15 12:28:00,71.7,67.0,30.01,NNE,23,3.0,8.0,84,0.00,,,0.54,weatherlink.com 1.10,2013-02-15 17:28:00,
2013-02-15 12:43:00,71.0,67.0,30.00,North,358,6.0,9.0,86,0.02,,,0.56,weatherlink.com 1.10,2013-02-15 17:43:00,
2013-02-15 12:58:00,70.2,67.0,29.99,North,360,0.0,5.0,89,0.04,,,0.58,weatherlink.com 1.10,2013-02-15 17:58:00,
2013-02-15 13:14:00,69.0,66.0,30.00,North,354,3.0,13.0,91,0.14,,,0.68,weatherlink.com 1.10,2013-02-15 18:14:00,
2013-02-15 13:29:00,67.2,65.0,29.99,NNW,344,5.0,13.0,92,0.22,,,0.76,weatherlink.com 1.10,2013-02-15 18:29:00,
2013-02-15 13:44:00,66.8,65.0,29.99,NNW,334,6.0,8.0,93,0.21,,,0.77,weatherlink.com 1.10,2013-02-15 18:44:00,
2013-02-15 14:14:00,66.2,64.0,29.98,NNW,344,5.0,9.0,93,0.10,,,0.79,weatherlink.com 1.10,2013-02-15 19:14:00,
2013-02-15 14:29:00,66.8,65.0,29.96,WNW,289,3.0,6.0,94,0.04,,,0.80,weatherlink.com 1.10,2013-02-15 19:29:00,
2013-02-15 14:44:00,67.2,66.0,29.97,NNW,338,5.0,7.0,94,0.05,,,0.82,weatherlink.com 1.10,2013-02-15 19:44:00,
2013-02-15 14:59:00,67.0,65.0,29.97,NNW,344,8.0,13.0,94,0.06,,,0.84,weatherlink.com 1.10,2013-02-15 19:59:00,
2013-02-15 15:14:00,66.8,65.0,29.97,NNW,331,4.0,9.0,94,0.07,,,0.86,weatherlink.com 1.10,2013-02-15 20:14:00,
2013-02-15 15:29:00,66.5,65.0,29.96,NNW,340,5.0,8.0,94,0.06,,,0.86,weatherlink.com 1.10,2013-02-15 20:29:00,
2013-02-15 15:44:00,66.7,65.0,29.96,NW,323,3.0,7.0,95,0.04,,,0.86,weatherlink.com 1.10,2013-02-15 20:44:00,
2013-02-15 15:59:00,66.7,65.0,29.96,NNW,334,1.0,8.0,95,0.02,,,0.86,weatherlink.com 1.10,2013-02-15 20:59:00,
2013-02-15 16:14:00,66.0,65.0,29.97,NNW,331,0.0,9.0,95,0.02,,,0.88,weatherlink.com 1.10,2013-02-15 21:14:00,
2013-02-15 16:29:00,66.0,-99.9,29.97,NNW,344,0.0,6.0,-999,0.04,,,0.90,weatherlink.com 1.10,2013-02-15 21:29:00,
2013-02-15 16:44:00,65.9,31.0,29.96,NNW,344,0.0,5.0,27,0.04,,,0.90,weatherlink.com 1.10,2013-02-15 21:44:00,
2013-02-15 16:59:00,66.2,31.0,29.97,NNW,344,0.0,4.0,27,0.05,,,0.91,weatherlink.com 1.10,2013-02-15 21:59:00,
2013-02-15 17:14:00,66.2,31.0,29.97,NNW,344,0.0,0.0,27,0.04,,,0.92,weatherlink.com 1.10,2013-02-15 22:14:00,
2013-02-15 17:29:00,65.5,30.0,29.97,North,354,5.0,7.0,27,0.02,,,0.92,weatherlink.com 1.10,2013-02-15 22:29:00,
2013-02-15 17:44:00,65.4,30.0,29.96,North,354,4.0,6.0,27,0.02,,,0.92,weatherlink.com 1.10,2013-02-15 22:44:00,
2013-02-15 17:59:00,65.9,31.0,29.96,North,349,4.0,6.0,27,0.02,,,0.93,weatherlink.com 1.10,2013-02-15 22:59:00,
2013-02-15 18:14:00,65.5,-99.9,29.96,North,359,4.0,9.0,-999,0.01,,,0.93,weatherlink.com 1.10,2013-02-15 23:14:00,
2013-02-15 18:29:00,65.4,-99.9,29.95,North,354,0.0,4.0,-999,0.01,,,0.93,weatherlink.com 1.10,2013-02-15 23:29:00,
2013-02-15 18:44:00,65.2,-99.9,29.96,NNW,344,2.0,6.0,-999,0.01,,,0.93,weatherlink.com 1.10,2013-02-15 23:44:00,
2013-02-15 18:59:00,65.4,-99.9,29.96,North,349,3.0,5.0,-999,0.00,,,0.93,weatherlink.com 1.10,2013-02-15 23:59:00,
2013-02-15 19:14:00,65.5,-99.9,29.95,North,354,2.0,4.0,-999,0.01,,,0.94,weatherlink.com 1.10,2013-02-16 00:14:00,
2013-02-15 19:29:00,65.5,-99.9,29.95,North,354,1.0,3.0,-999,0.02,,,0.95,weatherlink.com 1.10,2013-02-16 00:29:00,
2013-02-15 19:44:00,65.4,-99.9,29.96,North,354,0.0,0.0,-999,0.02,,,0.95,weatherlink.com 1.10,2013-02-16 00:44:00,
2013-02-15 19:59:00,65.5,-99.9,29.96,North,354,0.0,0.0,-999,0.02,,,0.96,weatherlink.com 1.10,2013-02-16 00:59:00,
2013-02-15 20:14:00,65.7,-99.9,29.96,North,354,0.0,0.0,-999,0.03,,,0.97,weatherlink.com 1.10,2013-02-16 01:14:00,
2013-02-15 21:31:00,65.2,-99.9,29.97,North,354,2.0,4.0,-999,0.01,,,0.99,weatherlink.com 1.10,2013-02-16 02:31:00,
2013-02-15 21:46:00,65.4,-99.9,29.97,North,354,0.0,3.0,-999,0.01,,,0.99,weatherlink.com 1.10,2013-02-16 02:46:00,
2013-02-15 22:00:00,65.4,-99.9,29.97,North,354,0.0,0.0,-999,0.00,,,0.99,weatherlink.com 1.10,2013-02-16 03:00:00,
2013-02-15 22:15:00,65.5,-99.9,29.97,North,354,0.0,0.0,-999,0.00,,,0.99,weatherlink.com 1.10,2013-02-16 03:15:00,
2013-02-15 22:31:00,65.5,-99.9,29.97,North,354,2.0,4.0,-999,0.00,,,0.99,weatherlink.com 1.10,2013-02-16 03:31:00,
2013-02-15 22:46:00,65.5,-99.9,29.97,North,354,0.0,3.0,-999,0.00,,,0.99,weatherlink.com 1.10,2013-02-16 03:46:00,
2013-02-15 23:01:00,65.7,-99.9,29.96,North,354,0.0,0.0,-999,0.00,,,0.99,weatherlink.com 1.10,2013-02-16 04:01:00,
2013-02-15 23:16:00,65.7,-99.9,29.96,North,354,0.0,0.0,-999,0.00,,,0.99,weatherlink.com 1.10,2013-02-16 04:16:00,
2013-02-15 23:31:00,65.9,-99.9,29.95,North,354,0.0,0.0,-999,0.00,,,0.99,weatherlink.com 1.10,2013-02-16 04:31:00,
2013-02-15 23:46:00,66.0,-99.9,29.95,North,354,0.0,0.0,-999,0.00,,,0.99,weatherlink.com 1.10,2013-02-16 04:46:00,